createdAt,value
2022-09-21T04:00:31.264Z,100788.25
2022-09-21T04:04:33.741Z,100782.09
2022-09-21T04:08:36.375Z,100786.59
2022-09-21T04:12:38.859Z,100785.06
2022-09-21T04:16:42.721Z,100784.69
2022-09-21T04:20:45.214Z,100790.75
2022-09-21T04:24:47.691Z,100791.63
2022-09-21T04:28:50.709Z,100787.84
2022-09-21T04:32:54.509Z,100791.38
2022-09-21T04:36:56.995Z,100786.97
2022-09-21T04:41:00.222Z,100783.53
2022-09-21T04:45:02.690Z,100786.81
2022-09-21T04:49:06.501Z,100794.84
2022-09-21T04:53:09.294Z,100793.00
2022-09-21T04:57:11.754Z,100796.25
2022-09-21T05:01:14.299Z,100791.34
2022-09-21T05:05:18.145Z,100800.22
2022-09-21T05:09:40.529Z,100806.19
2022-09-21T05:13:43.645Z,100812.63
2022-09-21T05:17:46.645Z,100813.19
2022-09-21T05:21:50.429Z,100819.59
2022-09-21T05:25:52.914Z,100826.06
2022-09-21T05:29:55.854Z,100825.56
2022-09-21T05:34:04.065Z,100827.16
2022-09-21T05:38:13.955Z,100832.34
2022-09-21T05:42:16.890Z,100828.78
2022-09-21T05:46:21.783Z,100839.16
2022-09-21T05:50:41.937Z,100844.31
2022-09-21T05:54:57.685Z,100843.94
2022-09-21T05:59:10.156Z,100842.63
2022-09-21T06:03:28.021Z,100842.16
2022-09-21T06:07:30.498Z,100851.63
2022-09-21T06:11:34.691Z,100852.97
2022-09-21T06:15:38.470Z,100853.09
2022-09-21T06:19:40.987Z,100860.16
2022-09-21T06:23:43.464Z,100859.31
2022-09-21T06:27:47.263Z,100853.22
2022-09-21T06:31:49.903Z,100855.28
2022-09-21T06:35:53.850Z,100851.84
2022-09-21T06:39:56.331Z,100859.84
2022-09-21T06:44:00.157Z,100856.41
2022-09-21T06:48:03.105Z,100856.75
2022-09-21T06:52:05.730Z,100856.06
2022-09-21T06:56:10.749Z,100853.19
2022-09-21T07:00:15.569Z,100862.09
2022-09-21T07:04:21.943Z,100867.75
2022-09-21T07:12:52.209Z,100865.38
2022-09-21T07:16:56.017Z,100873.97
2022-09-21T07:20:58.493Z,100874.16
2022-09-21T07:25:01.588Z,100873.88
2022-09-21T07:29:04.114Z,100876.97
2022-09-21T07:33:08.714Z,100873.78
2022-09-21T07:37:11.639Z,100884.41
2022-09-21T07:41:15.182Z,100884.25
2022-09-21T07:45:17.627Z,100886.91
2022-09-21T07:49:21.424Z,100899.91
2022-09-21T07:53:23.919Z,100897.53
2022-09-21T07:57:44.068Z,100892.47
2022-09-21T08:01:46.640Z,100898.66
2022-09-21T08:05:51.078Z,100897.44
2022-09-21T08:09:53.551Z,100889.25
2022-09-21T08:13:58.273Z,100893.84
2022-09-21T08:18:01.231Z,100895.09
2022-09-21T08:22:05.195Z,100897.81
2022-09-21T08:26:08.917Z,100894.63
2022-09-21T08:30:13.635Z,100892.44
2022-09-21T08:34:16.127Z,100894.69
2022-09-21T08:38:20.305Z,100894.97
2022-09-21T08:42:41.446Z,100897.06
2022-09-21T08:46:46.728Z,100891.88
2022-09-21T08:50:53.574Z,100891.63
2022-09-21T08:55:01.151Z,100893.31
2022-09-21T08:59:03.723Z,100897.81
2022-09-21T09:03:20.582Z,100893.09
2022-09-21T09:07:38.787Z,100900.66
2022-09-21T09:12:11.061Z,100899.81
2022-09-21T09:16:23.160Z,100891.34
2022-09-21T09:20:31.847Z,100884.56
2022-09-21T09:24:39.870Z,100893.91
2022-09-21T09:28:53.080Z,100881.69
2022-09-21T09:33:01.278Z,100891.75
2022-09-21T09:37:13.162Z,100884.53
2022-09-21T09:41:29.990Z,100893.22
2022-09-21T09:45:50.459Z,100884.75
2022-09-21T09:50:05.435Z,100895.59
2022-09-21T09:54:14.939Z,100878.13
2022-09-21T09:58:20.344Z,100884.84
2022-09-21T10:02:26.443Z,100885.84
2022-09-21T10:06:33.019Z,100882.56
2022-09-21T10:10:37.793Z,100886.56
2022-09-21T10:14:40.367Z,100884.31
2022-09-21T10:18:49.417Z,100877.25
2022-09-21T10:22:57.022Z,100871.84
2022-09-21T10:27:06.261Z,100876.50
2022-09-21T10:31:18.834Z,100875.03
2022-09-21T10:35:22.883Z,100868.13
2022-09-21T10:39:28.963Z,100872.72
2022-09-21T10:43:39.840Z,100855.75
2022-09-21T10:47:48.324Z,100860.16
2022-09-21T10:51:54.276Z,100860.16
2022-09-21T10:56:17.932Z,100861.56
2022-09-21T11:00:36.347Z,100851.31
2022-09-21T11:04:44.142Z,100849.19
2022-09-21T11:08:54.469Z,100840.75
2022-09-21T11:13:07.705Z,100836.84
2022-09-21T11:17:18.423Z,100835.88
2022-09-21T11:21:31.429Z,100832.13
2022-09-21T11:25:43.504Z,100828.09
2022-09-21T11:29:56.267Z,100822.41
2022-09-21T11:34:16.468Z,100821.56
2022-09-21T11:38:33.713Z,100815.34
2022-09-21T11:42:49.301Z,100803.75
2022-09-21T11:47:04.698Z,100798.88
2022-09-21T11:51:20.795Z,100803.00
2022-09-21T11:56:05.280Z,100798.22
2022-09-21T12:00:17.173Z,100802.75
2022-09-21T12:04:43.199Z,100792.44
2022-09-21T12:08:58.103Z,100786.13
2022-09-21T12:13:07.402Z,100782.78
2022-09-21T12:17:18.243Z,100776.59
2022-09-21T12:21:23.946Z,100792.22
2022-09-21T12:25:30.993Z,100782.75
2022-09-21T12:29:39.006Z,100779.44
2022-09-21T12:33:47.897Z,100775.28
2022-09-21T12:37:55.638Z,100777.34
2022-09-21T12:42:03.479Z,100772.59
2022-09-21T12:46:12.754Z,100773.31
2022-09-21T12:50:22.709Z,100769.47
2022-09-21T12:54:33.054Z,100763.81
2022-09-21T12:58:50.652Z,100766.19
2022-09-21T13:02:58.158Z,100758.91
2022-09-21T13:07:37.321Z,100751.78
2022-09-21T13:11:52.484Z,100760.13
2022-09-21T13:15:55.650Z,100757.69
2022-09-21T13:20:02.010Z,100744.66
2022-09-21T13:24:08.600Z,100750.78
2022-09-21T13:28:24.078Z,100741.47
2022-09-21T13:32:54.650Z,100748.03
2022-09-21T13:37:28.111Z,100751.38
2022-09-21T13:41:51.699Z,100739.06
2022-09-21T13:45:59.397Z,100743.97
2022-09-21T13:50:13.262Z,100740.94
2022-09-21T13:54:15.932Z,100730.28
2022-09-21T13:58:23.652Z,100744.34
2022-09-21T14:02:33.025Z,100733.97
2022-09-21T14:06:44.717Z,100730.53
2022-09-21T14:10:52.885Z,100739.94
2022-09-21T14:15:12.737Z,100733.25
2022-09-21T14:20:05.399Z,100727.88
2022-09-21T14:24:22.937Z,100731.66
2022-09-21T14:28:35.415Z,100727.63
2022-09-21T14:32:47.226Z,100724.22
2022-09-21T14:36:53.019Z,100715.88
2022-09-21T14:41:00.697Z,100712.72
2022-09-21T14:45:04.107Z,100719.38
2022-09-21T14:49:19.660Z,100708.19
2022-09-21T14:53:55.787Z,100717.47
2022-09-21T14:58:19.350Z,100707.00
2022-09-21T15:02:23.483Z,100711.16
2022-09-21T15:06:49.546Z,100703.28
2022-09-21T15:11:00.984Z,100701.56
2022-09-21T15:15:20.253Z,100692.00
2022-09-21T15:19:25.543Z,100697.88
2022-09-21T15:23:29.691Z,100700.06
2022-09-21T15:27:33.955Z,100691.19
2022-09-21T15:31:40.079Z,100695.63
2022-09-21T15:35:47.575Z,100686.16
2022-09-21T15:40:00.881Z,100687.41
2022-09-21T15:44:07.280Z,100687.53
2022-09-21T15:48:13.159Z,100687.31
2022-09-21T15:52:24.112Z,100682.50
2022-09-21T15:56:28.628Z,100679.84
2022-09-21T16:00:39.878Z,100679.59
2022-09-21T16:04:49.233Z,100685.06
2022-09-21T16:08:52.591Z,100677.56
2022-09-21T16:13:02.038Z,100685.66
2022-09-21T16:17:21.822Z,100686.22
2022-09-21T16:21:28.159Z,100680.94
2022-09-21T16:25:37.074Z,100693.72
2022-09-21T16:29:42.941Z,100684.59
2022-09-21T16:34:02.273Z,100688.94
2022-09-21T16:38:09.951Z,100685.38
2022-09-21T16:42:13.562Z,100684.00
2022-09-21T16:46:16.078Z,100694.94
2022-09-21T16:50:18.898Z,100690.38
2022-09-21T16:54:24.454Z,100691.38
2022-09-21T16:58:27.241Z,100691.56
2022-09-21T17:02:31.218Z,100686.78
2022-09-21T17:06:36.711Z,100691.19
2022-09-21T17:10:44.849Z,100703.97
2022-09-21T17:14:47.701Z,100699.78
2022-09-21T17:18:50.619Z,100704.41
2022-09-21T17:22:53.262Z,100702.50
2022-09-21T17:26:57.099Z,100694.97
2022-09-21T17:31:00.692Z,100696.78
2022-09-21T17:35:15.763Z,100703.75
2022-09-21T17:39:19.483Z,100706.84
2022-09-21T17:43:38.181Z,100705.91
2022-09-21T17:47:41.930Z,100707.47
2022-09-21T17:52:02.544Z,100705.28
2022-09-21T17:56:29.156Z,100713.47
2022-09-21T18:00:42.424Z,100707.44
2022-09-21T18:04:46.224Z,100711.28
2022-09-21T18:08:50.331Z,100709.66
2022-09-21T18:13:20.259Z,100714.84
2022-09-21T18:17:44.755Z,100711.41
2022-09-21T18:21:52.718Z,100723.16
2022-09-21T18:25:57.138Z,100720.66
2022-09-21T18:30:00.173Z,100723.75
2022-09-21T18:34:19.821Z,100727.31
2022-09-21T18:38:28.818Z,100733.72
2022-09-21T18:42:42.352Z,100725.34
2022-09-21T18:46:56.011Z,100733.91
2022-09-21T18:51:03.784Z,100738.56
2022-09-21T18:55:18.424Z,100735.88
2022-09-21T18:59:21.377Z,100740.31
2022-09-21T19:03:24.651Z,100734.44
2022-09-21T19:07:34.336Z,100736.53
2022-09-21T19:11:47.859Z,100739.81
2022-09-21T19:16:01.376Z,100738.13
2022-09-21T19:20:24.169Z,100744.44
2022-09-21T19:24:36.129Z,100742.81
2022-09-21T19:29:00.935Z,100741.28
2022-09-21T19:33:48.387Z,100735.38
2022-09-21T19:37:49.235Z,100736.44
2022-09-21T19:42:05.236Z,100738.94
2022-09-21T19:46:19.894Z,100739.66
2022-09-21T19:50:25.851Z,100739.41
2022-09-21T19:54:46.623Z,100733.69
2022-09-21T19:59:08.534Z,100731.66
2022-09-21T20:03:15.677Z,100738.72
2022-09-21T20:07:26.760Z,100736.72
2022-09-21T20:11:38.947Z,100735.69
2022-09-21T20:15:49.140Z,100739.41
2022-09-21T20:19:55.927Z,100736.72
2022-09-21T20:24:02.303Z,100744.78
2022-09-21T20:28:06.142Z,100748.00
2022-09-21T20:32:10.528Z,100745.47
2022-09-21T20:36:13.074Z,100749.28
2022-09-21T20:40:16.673Z,100744.06
2022-09-21T20:44:19.175Z,100738.66
2022-09-21T20:48:23.021Z,100735.41
2022-09-21T20:52:25.699Z,100740.28
2022-09-21T20:56:28.274Z,100738.63
